Latest Weather Observations for Sheoaks

IDV60801

Issued at 8:02 am EST Thursday 1 October 2020 (issued every 10 minutes, with the page automatically refreshed every 10 minutes)

About weather observations | Map of weather stations | Latest weather observations for VIC | Other Formats
Station Details ID: 087168 Name: SHEOAKS Lat: -37.91 Lon: 144.13 Height: 236.7 m
Data from the previous 72 hours. | See also: Recent months at Sheoaks
Date/Time
EST
Temp
°C
App
Temp
°C
Dew
Point
°C
Rel
Hum
%
Delta-T
°C
Wind Press
QNH
hPa
Press
MSL
hPa
Rain since
9am
mm
Dir  Spd
km/h
Gust
km/h
Spd
kts
Gust
kts
01/08:00am 9.7 6.8 6.4 80 1.6 WNW 11 19 6 10 1015.6 1015.8 6.0
01/07:30am 8.2 5.1 5.5 83 1.2 NW 11 15 6 8 1015.2 1015.4 6.0
01/07:00am 7.6 4.8 5.1 84 1.1 NW 9 17 5 9 1015.0 1015.2 6.0
01/06:30am 6.9 3.2 4.6 85 1.0 WNW 13 20 7 11 1014.4 1014.6 6.0
01/06:00am 6.9 3.2 4.6 85 1.0 WNW 13 24 7 13 1013.9 1014.0 6.0
01/05:30am 7.2 2.8 4.5 83 1.2 WNW 17 26 9 14 1013.5 1013.6 6.0
01/05:00am 7.4 2.6 4.7 83 1.2 WNW 19 28 10 15 1013.1 1013.2 6.0
01/04:30am 7.7 2.9 4.8 82 1.3 WNW 19 30 10 16 1012.8 1012.9 6.0
01/04:00am 8.1 3.3 4.7 79 1.5 W 19 30 10 16 1012.5 1012.6 6.0
01/03:30am 8.0 3.1 4.9 81 1.4 WNW 20 30 11 16 1012.3 1012.4 6.0
01/03:00am 8.0 3.8 5.6 85 1.1 WNW 17 26 9 14 1012.1 1012.2 6.0
01/02:30am 8.4 3.8 5.7 83 1.2 WNW 19 32 10 17 1012.1 1012.2 6.0
01/02:00am 8.3 3.7 5.8 84 1.1 WNW 19 28 10 15 1012.0 1012.1 6.0
01/01:30am 8.8 4.4 6.4 85 1.1 WNW 19 28 10 15 1011.7 1011.8 6.0
01/01:00am 8.8 4.2 6.3 84 1.2 WNW 20 32 11 17 1011.8 1011.9 6.0
01/12:30am 9.2 4.5 6.1 81 1.4 WNW 20 30 11 16 1011.3 1011.5 6.0
01/12:00am 9.1 4.7 6.5 84 1.2 WNW 19 26 10 14 1011.1 1011.3 6.0
 
Date/Time
EST
Temp
°C
App
Temp
°C
Dew
Point
°C
Rel
Hum
%
Delta-T
°C
Wind Press
QNH
hPa
Press
MSL
hPa
Rain since
9am
mm
Dir  Spd
km/h
Gust
km/h
Spd
kts
Gust
kts
30/11:30pm 9.0 4.4 6.4 84 1.2 W 20 33 11 18 1010.9 1011.1 6.0
30/11:00pm 9.3 4.9 6.7 84 1.2 WNW 19 37 10 20 1010.6 1010.7 6.0
30/10:30pm 9.7 5.2 7.1 84 1.2 WNW 20 30 11 16 1010.4 1010.5 6.0
30/10:00pm 10.0 5.2 7.4 84 1.3 WNW 22 35 12 19 1010.3 1010.4 6.0
30/09:30pm 9.4 6.0 7.7 89 0.8 WNW 15 24 8 13 1010.1 1010.2 6.0
30/09:00pm 9.2 4.1 7.8 91 0.7 W 24 37 13 20 1010.0 1010.1 6.0
30/08:30pm 11.1 6.3 8.8 86 1.2 WNW 24 35 13 19 1009.5 1009.6 5.0
30/08:00pm 11.7 8.5 9.8 88 1.0 NNW 17 24 9 13 1008.6 1008.7 4.4
30/07:30pm 11.8 8.5 9.7 87 1.1 WNW 17 28 9 15 1008.6 1008.7 4.2
30/07:00pm 11.4 6.6 8.8 84 1.3 WNW 24 41 13 22 1008.2 1008.3 4.0
30/06:30pm 12.5 8.9 10.4 87 1.1 WNW 20 30 11 16 1007.6 1007.7 3.6
30/06:00pm 12.3 9.7 10.7 90 0.8 WNW 15 24 8 13 1007.0 1007.1 3.6
30/05:30pm 12.7 8.9 9.9 83 1.5 W 20 39 11 21 1006.7 1006.8 0.8
30/05:00pm 15.0 11.4 10.4 74 2.5 NW 20 33 11 18 1005.9 1006.0 0.0
30/04:30pm 15.3 11.7 10.5 73 2.6 NNW 20 32 11 17 1005.6 1005.7 0.0
30/04:00pm 15.5 12.0 10.9 74 2.5 NNW 20 35 11 19 1005.8 1005.9 0.0
30/03:30pm 15.2 10.9 10.8 75 2.4 NNW 24 37 13 20 1005.7 1005.8 0.0
30/03:00pm 15.4 12.3 12.2 81 1.8 NNW 20 33 11 18 1006.4 1006.5 0.0
30/02:30pm 14.4 10.6 9.8 74 2.4 NNW 20 33 11 18 1006.9 1007.0 0.0
30/02:00pm 15.2 11.8 10.4 73 2.6 NNW 19 33 10 18 1006.8 1006.9 0.0
30/01:30pm 15.9 11.6 10.7 71 2.8 NNW 24 43 13 23 1007.3 1007.3 0.0
30/01:00pm 15.7 10.4 10.0 69 3.0 N 28 41 15 22 1007.7 1007.8 0.0
30/12:30pm 16.3 11.0 9.7 65 3.5 NNW 28 48 15 26 1007.9 1008.0 0.0
30/12:05pm 16.9 11.7 10.3 65 3.5 NNW 28 46 15 25 1008.2 1008.3 0.0
30/12:00pm 16.8 12.5 10.6 67 3.4 NW 24 43 13 23 1008.3 1008.4 0.0
30/11:30am 15.7 11.2 10.0 69 3.0 NNW 24 46 13 25 1008.7 1008.8 0.0
30/11:00am 15.4 10.2 10.4 72 2.7 NNW 28 54 15 29 1009.4 1009.5 0.0
30/10:57am 15.0 9.7 10.0 72 2.6 NNW 28 54 15 29 1009.4 1009.5 0.0
30/10:30am 15.5 11.1 10.3 71 2.8 NNW 24 43 13 23 1009.8 1009.9 0.0
30/10:00am 14.9 10.1 10.3 74 2.4 NNW 26 43 14 23 1010.3 1010.4 0.0
30/09:50am 14.6 9.3 9.8 73 2.5 NNW 28 46 15 25 1010.3 1010.4 0.0
30/09:30am 14.2 9.2 9.6 74 2.4 NNW 26 39 14 21 1010.5 1010.6 0.0
30/09:00am 13.4 10.8 9.3 76 2.1 N 13 24 7 13 1010.7 1010.8 0.0
30/08:30am 12.9 8.5 9.0 77 2.0 NNW 22 33 12 18 1011.2 1011.4 0.0
30/08:00am 12.6 7.7 8.3 75 2.2 N 24 41 13 22 1011.2 1011.4 0.0
30/07:30am 12.3 7.9 7.6 73 2.3 N 20 30 11 16 1011.1 1011.3 0.0
30/07:00am 11.8 8.6 6.9 72 2.4 NNE 13 19 7 10 1011.7 1011.8 0.0
30/06:30am 11.4 8.8 6.3 71 2.4 N 9 11 5 6 1012.0 1012.1 0.0
30/06:00am 11.5 9.3 6.4 71 2.4 N 7 11 4 6 1011.9 1012.0 0.0
30/05:30am 11.7 9.2 6.4 70 2.5 N 9 11 5 6 1011.8 1011.9 0.0
30/05:00am 12.1 8.5 6.6 69 2.7 N 15 22 8 12 1011.9 1012.0 0.0
30/04:30am 12.5 8.1 6.5 67 2.9 N 19 24 10 13 1012.2 1012.3 0.0
30/04:00am 12.6 8.2 6.4 66 3.0 N 19 26 10 14 1012.4 1012.5 0.0
30/03:30am 12.3 9.9 7.0 70 2.6 NNW 9 17 5 9 1012.7 1012.8 0.0
30/03:00am 11.5 9.9 6.2 70 2.5 NNW 4 6 2 3 1012.8 1012.9 0.0
30/02:30am 12.7 10.7 6.1 64 3.2 N 6 9 3 5 1012.8 1012.9 0.0
30/02:00am 12.8 10.6 6.2 64 3.2 N 7 9 4 5 1013.0 1013.1 0.0
30/01:30am 13.4 10.5 6.3 62 3.4 NNE 11 13 6 7 1013.4 1013.5 0.0
30/01:00am 13.4 9.9 7.2 66 3.1 NNE 15 17 8 9 1013.6 1013.7 0.0
30/12:30am 12.6 9.4 6.9 68 2.8 NE 13 15 7 8 1014.1 1014.2 0.0
30/12:00am 11.6 8.9 7.5 76 2.0 NE 11 13 6 7 1014.8 1015.0 0.0
 
Date/Time
EST
Temp
°C
App
Temp
°C
Dew
Point
°C
Rel
Hum
%
Delta-T
°C
Wind Press
QNH
hPa
Press
MSL
hPa
Rain since
9am
mm
Dir  Spd
km/h
Gust
km/h
Spd
kts
Gust
kts
29/11:30pm 11.0 9.5 6.9 76 2.0 ENE 4 6 2 3 1015.2 1015.4 0.0
29/11:00pm 11.3 9.8 6.8 74 2.2 SE 4 6 2 3 1015.6 1015.8 0.0
29/10:30pm 11.6 9.7 6.5 71 2.4 ENE 6 6 3 3 1015.7 1015.9 0.0
29/10:00pm 11.1 9.8 5.8 70 2.5 NNE 2 4 1 2 1016.0 1016.1 0.0
29/09:30pm 11.6 9.3 5.9 68 2.7 NNE 7 9 4 5 1016.1 1016.2 0.0
29/09:00pm 12.4 11.1 6.0 65 3.0 ENE 2 4 1 2 1016.4 1016.5 0.0
29/08:30pm 11.5 9.2 5.8 68 2.7 NE 7 9 4 5 1016.4 1016.5 0.0
29/08:00pm 12.0 9.7 5.9 66 2.9 NNE 7 9 4 5 1016.6 1016.7 0.0
29/07:30pm 12.7 9.5 6.7 67 2.9 NE 13 17 7 9 1016.6 1016.7 0.0
29/07:00pm 12.4 9.7 5.8 64 3.1 NE 9 11 5 6 1016.7 1016.8 0.0
29/06:30pm 14.1 11.1 6.0 58 3.9 NNE 11 15 6 8 1016.9 1017.0 0.0
29/06:00pm 14.5 12.5 6.1 57 4.1 NNE 6 11 3 6 1016.9 1017.0 0.0
29/05:30pm 16.0 13.7 5.9 51 4.9 N 7 15 4 8 1016.9 1017.0 0.0
29/05:00pm 16.4 13.8 6.0 50 5.1 NNW 9 13 5 7 1017.2 1017.3 0.0
29/04:30pm 16.6 13.1 5.3 47 5.5 N 13 20 7 11 1016.9 1017.0 0.0
29/04:00pm 16.8 12.5 5.1 46 5.6 NNW 17 24 9 13 1016.9 1017.0 0.0
29/03:30pm 17.6 12.8 4.6 42 6.3 NNW 19 28 10 15 1016.9 1017.0 0.0
29/03:00pm 18.0 13.7 5.2 43 6.2 N 17 24 9 13 1017.3 1017.4 0.0
29/02:30pm 18.6 14.4 5.5 42 6.5 N 17 26 9 14 1017.6 1017.7 0.0
29/02:00pm 18.2 14.1 4.4 40 6.6 NNE 15 22 8 12 1018.1 1018.3 0.0
29/01:30pm 18.1 14.2 5.3 43 6.3 NNE 15 22 8 12 1018.7 1018.9 0.0
29/01:00pm 18.2 14.2 4.7 41 6.5 N 15 22 8 12 1019.5 1019.7 0.0
29/12:30pm 17.6 14.8 5.2 44 6.0 N 9 15 5 8 1020.1 1020.3 0.0
29/12:00pm 17.4 14.5 6.3 48 5.5 NNE 11 17 6 9 1020.7 1020.8 0.0
29/11:30am 16.0 13.7 5.9 51 4.9 N 7 15 4 8 1021.2 1021.3 0.0
29/11:00am 15.7 13.1 6.2 53 4.6 N 9 17 5 9 1021.8 1022.0 0.0
29/10:30am 15.3 12.7 6.1 54 4.5 N 9 15 5 8 1022.1 1022.3 0.0
29/10:00am 14.7 11.4 6.5 58 4.0 N 13 20 7 11 1022.3 1022.5 0.0
29/09:30am 13.6 13.0 8.9 73 2.4 SSW 2 6 1 3 1022.5 1022.7 0.0
29/09:00am 13.2 12.1 9.8 80 1.8 ENE 6 7 3 4 1022.8 1023.0 0.0
29/08:30am 11.2 11.0 10.4 95 0.4 NNE 2 6 1 3 1023.2 1023.4 0.0
29/08:00am 7.9 6.2 7.5 97 0.2 N 6 7 3 4 1023.9 1024.1 0.0
29/07:30am 5.3 2.8 5.0 98 0.1 NNW 7 9 4 5 1024.3 1024.5 0.0
29/07:00am 3.4 0.6 3.0 97 0.2 N 7 11 4 6 1024.0 1024.2 0.0
29/06:30am 2.4 -0.6 2.0 97 0.2 N 7 9 4 5 1023.7 1023.9 0.0
29/06:00am 2.0 -1.4 1.6 97 0.2 N 9 13 5 7 1023.8 1024.0 0.0
29/05:30am 0.4 -3.3 -0.2 96 0.2 NNW 9 11 5 6 1023.8 1024.0 0.0
29/05:00am 0.2 -3.2 -0.4 96 0.2 N 7 9 4 5 1023.1 1023.3 0.0
29/04:30am 0.6 -2.5 0.0 96 0.2 N 6 7 3 4 1023.0 1023.2 0.0
29/04:00am 0.5 -2.8 -0.2 95 0.3 N 7 7 4 4 1023.0 1023.2 0.0
29/03:30am 0.6 -2.7 -0.1 95 0.3 N 7 9 4 5 1023.5 1023.7 0.0
29/03:00am 1.4 -1.8 0.7 95 0.3 N 7 9 4 5 1023.7 1023.9 0.0
29/02:30am 1.9 -2.0 1.2 95 0.3 N 11 11 6 6 1023.9 1024.1 0.0
29/02:00am 1.4 -1.8 0.5 94 0.3 N 7 9 4 5 1024.3 1024.5 0.0
29/01:30am 1.6 -1.0 0.7 94 0.3 N 4 6 2 3 1024.6 1024.8 0.0
29/01:00am 2.0 -1.0 1.0 93 0.4 N 6 7 3 4 1025.3 1025.5 0.0
29/12:30am 2.7 -0.2 1.7 93 0.4 NNE 6 7 3 4 1025.6 1025.8 0.0
29/12:00am 2.9 -0.1 1.9 93 0.4 N 7 7 4 4 1025.9 1026.1 0.0
 
Date/Time
EST
Temp
°C
App
Temp
°C
Dew
Point
°C
Rel
Hum
%
Delta-T
°C
Wind Press
QNH
hPa
Press
MSL
hPa
Rain since
9am
mm
Dir  Spd
km/h
Gust
km/h
Spd
kts
Gust
kts
28/11:30pm 3.2 0.2 2.0 92 0.5 N 7 9 4 5 1026.0 1026.2 0.0
28/11:00pm 3.1 0.6 1.8 91 0.5 N 4 6 2 3 1026.1 1026.3 0.0
28/10:30pm 3.3 0.4 1.7 89 0.6 NNE 6 6 3 3 1026.1 1026.3 0.0
28/10:00pm 4.8 2.2 3.1 89 0.7 NE 6 7 3 4 1026.2 1026.4 0.0
28/09:30pm 4.5 1.8 2.7 88 0.7 NE 6 7 3 4 1026.5 1026.7 0.0
28/09:00pm 4.6 1.7 2.5 86 0.9 ENE 7 9 4 5 1026.6 1026.8 0.0
28/08:30pm 5.2 2.3 2.7 84 1.0 ENE 7 9 4 5 1026.6 1026.8 0.0
28/08:00pm 6.3 3.6 3.5 82 1.2 E 7 11 4 6 1026.5 1026.7 0.0
28/07:30pm 6.8 3.7 3.8 81 1.3 ESE 9 13 5 7 1026.3 1026.5 0.0
28/07:00pm 7.4 4.5 4.4 81 1.3 ESE 9 15 5 8 1026.3 1026.5 0.0
28/06:30pm 8.1 4.7 4.1 76 1.8 ESE 11 15 6 8 1026.3 1026.5 0.0
28/06:00pm 9.4 6.1 4.4 71 2.2 ESE 11 17 6 9 1026.2 1026.4 0.0
28/05:30pm 10.5 6.5 5.1 69 2.5 ESE 15 20 8 11 1025.9 1026.1 0.0
28/05:00pm 11.4 7.5 5.3 66 2.8 SE 15 20 8 11 1025.7 1025.9 0.0
28/04:30pm 12.3 8.7 5.2 62 3.3 ESE 13 20 7 11 1025.7 1025.9 0.0
28/04:00pm 12.6 9.4 5.3 61 3.4 SE 11 17 6 9 1025.8 1026.0 0.0
28/03:30pm 12.5 9.3 5.0 60 3.5 SE 11 17 6 9 1026.0 1026.2 0.0
28/03:00pm 13.1 10.1 5.8 61 3.5 ESE 11 17 6 9 1026.2 1026.4 0.0
28/02:30pm 12.6 9.8 5.3 61 3.4 ESE 9 19 5 10 1026.5 1026.7 0.0
28/02:00pm 12.7 9.7 5.8 63 3.3 SE 11 19 6 10 1026.7 1026.9 0.0
28/01:30pm 12.8 9.8 5.9 63 3.3 SE 11 20 6 11 1027.0 1027.2 0.0
28/01:00pm 12.1 9.6 5.0 62 3.3 ESE 7 17 4 9 1027.3 1027.5 0.0
28/12:30pm 11.9 8.7 5.3 64 3.1 ESE 11 15 6 8 1027.7 1027.9 0.0
28/12:00pm 11.2 8.6 4.2 62 3.2 E 7 11 4 6 1028.2 1028.4 0.0
28/11:30am 10.7 8.1 4.2 64 2.9 E 7 13 4 7 1028.3 1028.5 0.0
28/11:00am 10.4 7.9 3.9 64 2.9 SSE 6 13 3 7 1028.6 1028.9 0.0
28/10:30am 9.5 6.8 3.7 67 2.6 SE 7 15 4 8 1029.1 1029.4 0.0
28/10:00am 9.3 6.8 4.5 72 2.1 ESE 7 15 4 8 1029.5 1029.7 0.0
28/09:30am 9.1 6.2 6.5 84 1.2 SE 11 17 6 9 1029.4 1029.6 0.0
28/09:00am 8.6 6.9 7.7 94 0.4 S 6 7 3 4 1029.4 1029.6 0.2
28/08:30am 7.2 6.5 6.8 97 0.2 CALM 0 0 0 0 1029.1 1029.4 0.2

Other formats

Comma delimited format used in spreadsheet applications
http://www.bom.gov.au/fwo/IDV60801/IDV60801.94863.axf

JavaScript Object Notation format (JSON) in row-major order
http://www.bom.gov.au/fwo/IDV60801/IDV60801.94863.json

Data quality

Most of these data are generated automatically and are frequently updated. Quality checks on data are not normally performed. It is possible for incorrect values to appear. Refer to information at About Latest Weather Observations and please check the disclaimer before using these data.